Time;durP1;ratioP1;P1;durP2;ratioP2;P2;SDS_P1;SDS_P2;PMS_P1;PMS_P2;Temp;Humidity;BMP_temperature;BMP_pressure;BME280_temperature;BME280_humidity;BME280_pressure;Samples;Min_cycle;Max_cycle;Signal;HPM_P1;HPM_P2
2023/04/17 00:00:04;;;;;;;14.07;8.53;;;;;;;8.47;95.00;101013.76;1682264;85;21063;-56
2023/04/17 00:02:38;;;;;;;13.88;8.95;;;;;;;8.47;95.02;101014.27;1683602;85;21012;-56
2023/04/17 00:05:09;;;;;;;15.43;9.33;;;;;;;8.46;95.11;101012.05;1685734;84;21016;-55
2023/04/17 00:07:40;;;;;;;12.53;8.45;;;;;;;8.49;95.12;101017.17;1683926;85;21495;-53
2023/04/17 00:10:09;;;;;;;14.87;8.20;;;;;;;8.50;95.03;101013.93;1696304;84;21032;-54
2023/04/17 00:12:38;;;;;;;15.15;9.00;;;;;;;8.50;95.02;101017.52;1701394;84;21051;-55
2023/04/17 00:15:08;;;;;;;12.63;8.85;;;;;;;8.51;95.06;101019.22;1695863;84;21031;-55
2023/04/17 00:17:38;;;;;;;16.17;8.68;;;;;;;8.51;95.14;101021.95;1691220;85;21420;-56
2023/04/17 00:20:09;;;;;;;14.03;8.45;;;;;;;8.52;95.12;101016.83;1693889;84;21205;-55
2023/04/17 00:22:38;;;;;;;13.32;9.28;;;;;;;8.53;95.07;101021.78;1684571;84;21498;-56
2023/04/17 00:25:11;;;;;;;13.22;8.63;;;;;;;8.54;95.10;101023.49;1736631;83;21071;-56
2023/04/17 00:27:43;;;;;;;13.70;8.43;;;;;;;8.54;95.12;101014.79;1736283;82;21040;-55
2023/04/17 00:30:17;;;;;;;12.33;8.40;;;;;;;8.54;95.04;101021.61;1736280;83;21043;-54
2023/04/17 00:32:46;;;;;;;14.23;8.35;;;;;;;8.53;95.01;101017.17;1736264;83;21020;-55
2023/04/17 00:35:15;;;;;;;16.62;8.50;;;;;;;8.52;95.00;101019.56;1736441;82;21019;-56
2023/04/17 00:37:44;;;;;;;13.45;8.73;;;;;;;8.53;95.04;101018.55;1736489;82;21083;-55
2023/04/17 00:40:13;;;;;;;15.28;8.83;;;;;;;8.54;95.07;101013.94;1736473;82;21052;-56
2023/04/17 00:42:42;;;;;;;12.90;8.58;;;;;;;8.54;95.13;101014.79;1736504;82;21487;-56
2023/04/17 00:45:11;;;;;;;14.47;9.33;;;;;;;8.54;95.07;101012.05;1716037;83;21079;-56
2023/04/17 00:47:40;;;;;;;15.50;8.50;;;;;;;8.52;94.98;101011.88;1736274;82;21134;-56
2023/04/17 00:50:10;;;;;;;14.43;8.85;;;;;;;8.49;95.11;101019.91;1736413;82;21035;-57
2023/04/17 00:52:39;;;;;;;11.50;7.83;;;;;;;8.48;95.16;101018.20;1736371;82;20992;-54
2023/04/17 00:55:09;;;;;;;14.28;8.70;;;;;;;8.49;95.21;101017.17;1736696;83;21012;-57
2023/04/17 00:57:37;;;;;;;13.68;8.50;;;;;;;8.47;95.32;101012.91;1736196;82;21023;-55
2023/04/17 01:00:09;;;;;;;11.57;7.72;;;;;;;8.48;95.47;101010.52;1736157;82;21027;-55
2023/04/17 01:02:39;;;;;;;13.30;8.78;;;;;;;8.49;95.49;101010.34;1736295;82;21028;-56
2023/04/17 01:05:09;;;;;;;12.18;8.20;;;;;;;8.51;95.55;101012.91;1736508;82;21067;-55
2023/04/17 01:07:38;;;;;;;14.93;8.45;;;;;;;8.54;95.61;101016.66;1736358;82;21443;-54
2023/04/17 01:10:08;;;;;;;13.93;8.58;;;;;;;8.55;95.59;101018.38;1736511;82;21027;-55
2023/04/17 01:12:37;;;;;;;12.70;7.67;;;;;;;8.55;95.51;101009.67;1723594;83;21024;-56
2023/04/17 01:15:06;;;;;;;14.20;8.48;;;;;;;8.56;95.49;101008.64;1736587;83;21060;-56
2023/04/17 01:17:35;;;;;;;13.53;8.85;;;;;;;8.58;95.50;101011.20;1736024;83;21093;-55
2023/04/17 01:20:09;;;;;;;13.38;8.83;;;;;;;8.57;95.46;101017.18;1736425;82;21021;-56
2023/04/17 01:22:38;;;;;;;14.75;8.73;;;;;;;8.58;95.45;101018.89;1741964;82;21428;-56
2023/04/17 01:25:07;;;;;;;17.05;9.10;;;;;;;8.58;95.39;101014.79;1741868;82;21023;-55
2023/04/17 01:27:38;;;;;;;15.78;8.98;;;;;;;8.59;95.42;101008.81;1735931;82;21950;-55
2023/04/17 01:30:12;;;;;;;17.52;10.05;;;;;;;8.61;95.37;101018.20;1731880;82;20996;-56
2023/04/17 01:32:42;;;;;;;13.58;9.68;;;;;;;8.60;95.26;101006.94;1731176;83;21028;-55
2023/04/17 01:35:11;;;;;;;17.48;10.15;;;;;;;8.61;95.28;101005.91;1731664;82;21159;-56
2023/04/17 01:37:40;;;;;;;13.13;9.03;;;;;;;8.61;95.20;101002.67;1669511;86;21040;-56
2023/04/17 01:40:10;;;;;;;14.05;8.90;;;;;;;8.62;95.20;101008.48;1696412;84;21494;-55
2023/04/17 01:42:39;;;;;;;14.90;8.98;;;;;;;8.63;95.20;101005.23;1667218;85;21052;-55
2023/04/17 01:45:08;;;;;;;17.80;10.10;;;;;;;8.65;95.14;100997.72;1696689;84;21052;-56
2023/04/17 01:47:38;;;;;;;15.05;9.43;;;;;;;8.64;94.98;101002.33;1679769;85;21490;-55
2023/04/17 01:50:10;;;;;;;16.15;10.82;;;;;;;8.64;95.03;101004.20;1696351;84;21488;-56
2023/04/17 01:52:39;;;;;;;17.27;10.93;;;;;;;8.65;95.03;101005.92;1679343;85;21053;-55
2023/04/17 01:55:10;;;;;;;15.95;10.08;;;;;;;8.66;94.95;101011.21;1679656;85;21056;-56
2023/04/17 01:57:39;;;;;;;18.23;10.03;;;;;;;8.66;94.84;101007.63;1679560;84;21120;-56
2023/04/17 02:00:09;;;;;;;17.40;11.08;;;;;;;8.65;94.83;101015.48;1679922;85;21073;-57
2023/04/17 02:02:42;;;;;;;18.17;10.88;;;;;;;8.65;94.91;101008.64;1679636;84;21425;-55
2023/04/17 02:05:12;;;;;;;18.45;11.97;;;;;;;8.69;94.97;101011.38;1679709;85;21115;-56
2023/04/17 02:07:41;;;;;;;17.05;11.28;;;;;;;8.69;94.81;101007.28;1679839;85;21076;-56
2023/04/17 02:10:10;;;;;;;16.02;10.23;;;;;;;8.67;94.59;101004.72;1679597;85;21095;-56
2023/04/17 02:12:38;;;;;;;16.20;11.20;;;;;;;8.66;94.55;101007.63;1679847;85;21179;-58
2023/04/17 02:15:08;;;;;;;19.25;10.72;;;;;;;8.65;94.55;101017.70;1679895;85;21056;-56
2023/04/17 02:17:39;;;;;;;17.85;11.18;;;;;;;8.65;94.56;101019.58;1679468;85;21060;-56
2023/04/17 02:20:11;;;;;;;20.52;10.78;;;;;;;8.65;94.50;101015.48;1679697;85;21072;-56
2023/04/17 02:22:40;;;;;;;18.25;10.68;;;;;;;8.65;94.56;101016.84;1679134;85;21491;-56
2023/04/17 02:25:09;;;;;;;16.07;10.45;;;;;;;8.67;94.47;101012.91;1679122;85;21514;-56
2023/04/17 02:27:39;;;;;;;18.45;10.55;;;;;;;8.67;94.29;101014.80;1679233;85;21521;-57
2023/04/17 02:30:09;;;;;;;20.50;11.18;;;;;;;8.67;94.23;101026.58;1679002;85;21546;-56
2023/04/17 02:32:39;;;;;;;18.02;10.98;;;;;;;8.69;94.13;101016.84;1679183;85;21036;-55
2023/04/17 02:35:09;;;;;;;14.87;9.98;;;;;;;8.68;94.07;101020.09;1668715;86;21009;-56
2023/04/17 02:37:38;;;;;;;17.48;10.60;;;;;;;8.67;94.11;101021.11;1692138;85;21062;-56
2023/04/17 02:40:09;;;;;;;17.17;10.55;;;;;;;8.69;94.17;101016.33;1692251;85;20999;-55
2023/04/17 02:42:39;;;;;;;21.10;11.78;;;;;;;8.70;94.15;101026.23;1692099;85;21012;-56
2023/04/17 02:45:09;;;;;;;15.95;10.43;;;;;;;8.70;94.11;101022.65;1692491;85;21076;-56
2023/04/17 02:47:38;;;;;;;18.45;10.28;;;;;;;8.69;94.13;101029.14;1692152;85;21051;-54
2023/04/17 02:50:08;;;;;;;18.73;10.18;;;;;;;8.68;94.12;101021.97;1686587;85;21069;-55
2023/04/17 02:52:39;;;;;;;15.95;9.73;;;;;;;8.68;94.20;101028.80;1685808;85;21043;-56
2023/04/17 02:55:08;;;;;;;16.95;10.10;;;;;;;8.65;94.14;101029.13;1655382;87;21014;-56
2023/04/17 02:57:38;;;;;;;22.80;9.68;;;;;;;8.64;94.25;101039.72;1655367;87;21089;-56
2023/04/17 03:00:13;;;;;;;15.55;9.63;;;;;;;8.65;94.39;101027.26;1655195;87;21082;-55
2023/04/17 03:02:42;;;;;;;12.65;8.83;;;;;;;8.66;94.31;101023.50;1653621;87;21460;-55
2023/04/17 03:05:13;;;;;;;12.78;8.58;;;;;;;8.65;94.21;101031.36;1686407;85;21093;-56
2023/04/17 03:07:42;;;;;;;12.00;8.23;;;;;;;8.66;94.27;101034.94;1655277;87;21125;-55
2023/04/17 03:10:12;;;;;;;11.75;8.50;;;;;;;8.65;94.20;101038.19;1655381;85;21077;-56
2023/04/17 03:12:42;;;;;;;14.65;9.08;;;;;;;8.66;94.16;101035.80;1679325;85;21522;-56
2023/04/17 03:15:11;;;;;;;16.67;8.98;;;;;;;8.68;93.98;101040.58;1655389;85;21085;-54
2023/04/17 03:17:40;;;;;;;15.03;9.08;;;;;;;8.70;93.88;101049.45;1655198;85;21506;-54
2023/04/17 03:20:10;;;;;;;14.75;8.40;;;;;;;8.71;93.80;101051.16;1655183;87;21060;-56
2023/04/17 03:22:39;;;;;;;16.65;8.75;;;;;;;8.71;93.75;101052.53;1677678;84;21077;-55
2023/04/17 03:25:09;;;;;;;15.30;9.25;;;;;;;8.72;93.69;101049.28;1690620;85;21078;-56
2023/04/17 03:27:40;;;;;;;14.13;9.08;;;;;;;8.71;93.69;101049.80;1694540;83;21429;-55
2023/04/17 03:30:11;;;;;;;14.25;10.00;;;;;;;8.73;93.74;101056.45;1694102;84;21020;-56
2023/04/17 03:32:42;;;;;;;19.73;10.18;;;;;;;8.73;93.70;101057.83;1694235;85;21056;-56
2023/04/17 03:35:11;;;;;;;17.80;9.30;;;;;;;8.72;93.58;101056.97;1715108;83;21066;-56
2023/04/17 03:37:39;;;;;;;16.07;9.48;;;;;;;8.73;93.58;101060.56;1715234;83;21040;-54
2023/04/17 03:40:09;;;;;;;15.60;9.20;;;;;;;8.72;93.49;101067.05;1717924;80;21015;-54
2023/04/17 03:42:37;;;;;;;16.73;9.93;;;;;;;8.72;93.32;101059.70;1718349;84;21110;-56
2023/04/17 03:45:08;;;;;;;15.00;9.28;;;;;;;8.73;93.19;101064.66;1716664;84;21102;-55
2023/04/17 03:47:36;;;;;;;16.55;9.23;;;;;;;8.74;92.97;101067.73;1714432;82;21035;-57
2023/04/17 03:50:06;;;;;;;14.80;9.00;;;;;;;8.72;92.54;101070.63;1714339;83;21448;-56
2023/04/17 03:52:37;;;;;;;16.17;8.48;;;;;;;8.70;92.29;101074.05;1714223;82;21467;-56
2023/04/17 03:55:08;;;;;;;20.25;9.35;;;;;;;8.70;92.05;101073.19;1714290;82;21065;-55
2023/04/17 03:57:36;;;;;;;13.32;8.28;;;;;;;8.69;91.98;101071.48;1714007;84;21016;-55
2023/04/17 04:00:11;;;;;;;12.53;7.80;;;;;;;8.70;91.62;101068.58;1714517;83;21059;-56
2023/04/17 04:02:53;;;;;;;12.35;7.47;;;;;;;8.70;91.31;101079.52;1714348;82;21095;-56
2023/04/17 04:05:27;;;;;;;12.37;7.33;;;;;;;8.71;91.04;101074.39;1714100;82;21020;-55
2023/04/17 04:07:56;;;;;;;12.63;7.72;;;;;;;8.72;90.70;101077.97;1714272;84;21451;-55
2023/04/17 04:10:27;;;;;;;16.65;7.53;;;;;;;8.75;90.62;101080.37;1714795;82;21011;-56
2023/04/17 04:12:56;;;;;;;16.75;7.72;;;;;;;8.77;90.40;101076.95;1714147;84;21019;-56
2023/04/17 04:15:25;;;;;;;11.93;6.70;;;;;;;8.76;90.11;101075.25;1714190;84;21000;-56
2023/04/17 04:17:56;;;;;;;10.28;6.30;;;;;;;8.77;89.96;101080.55;1714144;84;21059;-56
2023/04/17 04:20:24;;;;;;;12.47;6.17;;;;;;;8.79;89.56;101081.73;1714158;84;21116;-56
2023/04/17 04:22:59;;;;;;;9.48;5.62;;;;;;;8.79;89.33;101083.95;1718032;82;21090;-57
2023/04/17 04:25:29;;;;;;;9.43;5.75;;;;;;;8.80;88.89;101084.30;1718622;83;21467;-56
2023/04/17 04:28:01;;;;;;;8.58;5.30;;;;;;;8.82;88.26;101088.23;1720817;82;21024;-56
2023/04/17 04:30:34;;;;;;;9.73;5.50;;;;;;;8.83;87.65;101094.04;1718700;82;21078;-55
2023/04/17 04:33:05;;;;;;;9.78;5.17;;;;;;;8.86;87.58;101092.33;1719588;82;21031;-57
2023/04/17 04:35:34;;;;;;;9.33;5.40;;;;;;;8.86;86.83;101091.82;1718622;83;21537;-57
2023/04/17 04:38:03;;;;;;;8.80;5.12;;;;;;;8.88;86.28;101095.75;1718692;83;21052;-55
2023/04/17 04:40:37;;;;;;;11.83;5.60;;;;;;;8.88;85.80;101097.97;1718816;82;21447;-56
2023/04/17 04:43:06;;;;;;;11.57;5.33;;;;;;;8.88;85.42;101103.95;1718644;82;20999;-57
2023/04/17 04:45:38;;;;;;;9.38;4.90;;;;;;;8.92;85.40;101093.53;1718979;82;21067;-56
2023/04/17 04:48:07;;;;;;;13.50;5.25;;;;;;;8.93;85.37;101101.56;1718669;83;21000;-55
2023/04/17 04:50:36;;;;;;;8.98;4.80;;;;;;;8.94;84.77;101096.44;1718640;82;21158;-55
2023/04/17 04:53:05;;;;;;;9.68;5.00;;;;;;;8.93;83.72;101105.66;1718711;83;21536;-58
2023/04/17 04:55:41;;;;;;;12.82;4.92;;;;;;;8.92;83.52;101105.32;1719164;82;21074;-56
2023/04/17 04:58:10;;;;;;;9.43;5.15;;;;;;;8.93;83.03;101101.56;1718585;82;21082;-55
2023/04/17 05:00:39;;;;;;;9.98;4.70;;;;;;;8.94;82.79;101096.95;1718670;82;21055;-57
2023/04/17 05:03:09;;;;;;;11.40;5.60;;;;;;;8.94;82.31;101099.17;1718914;82;21455;-56
2023/04/17 05:05:42;;;;;;;9.43;5.10;;;;;;;8.95;82.21;101101.39;1718661;83;21027;-56
2023/04/17 05:08:12;;;;;;;10.95;5.40;;;;;;;8.95;81.94;101097.29;1742936;82;21063;-56
2023/04/17 05:10:44;;;;;;;9.80;5.35;;;;;;;8.97;81.97;101101.56;1718494;83;21095;-56
2023/04/17 05:13:14;;;;;;;8.70;5.08;;;;;;;8.98;81.85;101099.17;1718478;83;20999;-57
2023/04/17 05:15:43;;;;;;;10.60;4.70;;;;;;;8.99;81.21;101109.08;1718549;83;21059;-56
2023/04/17 05:18:12;;;;;;;10.45;5.20;;;;;;;9.01;80.85;101108.39;1718666;82;21278;-56
2023/04/17 05:20:42;;;;;;;11.35;4.80;;;;;;;9.02;80.62;101106.52;1718647;83;21055;-56
2023/04/17 05:23:12;;;;;;;8.43;3.95;;;;;;;9.03;79.53;101100.88;1709274;82;21063;-57
2023/04/17 05:25:42;;;;;;;11.55;4.45;;;;;;;9.03;78.56;101104.98;1680102;85;21538;-57
2023/04/17 05:28:11;;;;;;;9.83;3.72;;;;;;;9.04;78.52;101111.30;1680268;85;21075;-57
2023/04/17 05:30:42;;;;;;;8.48;4.00;;;;;;;9.07;78.21;101119.16;1717628;83;21478;-56
2023/04/17 05:33:19;;;;;;;7.12;3.22;;;;;;;9.09;77.32;101127.53;1680651;84;21063;-57
2023/04/17 05:35:50;;;;;;;12.82;4.12;;;;;;;9.10;76.78;101125.66;1630191;87;21087;-56
2023/04/17 05:38:22;;;;;;;11.22;4.50;;;;;;;9.13;77.05;101128.94;1679947;84;21051;-56
2023/04/17 05:40:52;;;;;;;9.73;4.00;;;;;;;9.16;76.90;101129.96;1704409;83;21004;-57
2023/04/17 05:43:21;;;;;;;13.30;4.00;;;;;;;9.21;76.55;101131.67;1702350;84;21079;-57
2023/04/17 05:45:53;;;;;;;6.95;3.80;;;;;;;9.25;76.11;101133.55;1691875;84;21073;-56
2023/04/17 05:48:23;;;;;;;10.95;4.10;;;;;;;9.29;75.97;101132.18;1678743;85;21088;-57
2023/04/17 05:50:53;;;;;;;13.13;4.22;;;;;;;9.34;75.31;101127.56;1678833;85;21036;-56
2023/04/17 05:53:23;;;;;;;10.50;3.92;;;;;;;9.41;74.33;101128.07;1693781;83;21047;-57
2023/04/17 05:55:53;;;;;;;10.72;3.80;;;;;;;9.46;73.64;101127.55;1706969;84;21032;-55
2023/04/17 05:58:24;;;;;;;7.33;3.55;;;;;;;9.55;73.47;101133.35;1703058;83;21067;-56
2023/04/17 06:00:57;;;;;;;7.72;3.30;;;;;;;9.62;72.46;101128.89;1697576;84;21051;-57
2023/04/17 06:03:28;;;;;;;7.87;3.55;;;;;;;9.68;71.79;101130.08;1676122;85;21497;-56
2023/04/17 06:06:00;;;;;;;6.95;3.33;;;;;;;9.76;71.01;101132.83;1630581;87;21035;-57
2023/04/17 06:08:29;;;;;;;10.85;3.67;;;;;;;9.82;69.70;101138.46;1679412;85;20989;-57
2023/04/17 06:10:59;;;;;;;9.68;3.42;;;;;;;9.88;68.64;101141.02;1632141;86;21079;-57
2023/04/17 06:13:30;;;;;;;8.73;3.17;;;;;;;9.93;68.01;101144.59;1670135;85;21080;-58
2023/04/17 06:15:59;;;;;;;13.38;3.42;;;;;;;9.95;65.28;101146.13;1630227;88;21075;-57
2023/04/17 06:18:28;;;;;;;5.72;2.98;;;;;;;9.93;65.96;101140.48;1681324;85;21044;-55
2023/04/17 06:20:57;;;;;;;8.65;3.30;;;;;;;9.93;65.26;101145.96;1682420;84;21039;-56
2023/04/17 06:23:28;;;;;;;9.80;3.17;;;;;;;9.91;64.68;101146.65;1682260;84;21079;-56
2023/04/17 06:25:57;;;;;;;10.93;2.90;;;;;;;9.92;64.76;101146.98;1685104;85;21549;-58
2023/04/17 06:28:27;;;;;;;5.12;3.00;;;;;;;9.95;65.06;101148.86;1694796;84;21039;-57
2023/04/17 06:30:58;;;;;;;7.47;3.30;;;;;;;10.00;65.25;101145.59;1697024;84;21071;-59
2023/04/17 06:33:27;;;;;;;7.78;2.92;;;;;;;10.04;64.17;101156.53;1694240;84;21087;-56
2023/04/17 06:35:57;;;;;;;6.65;3.20;;;;;;;10.07;63.25;101157.55;1695972;84;21458;-58
2023/04/17 06:38:27;;;;;;;4.72;2.80;;;;;;;10.12;63.33;101157.88;1694847;84;21064;-57
2023/04/17 06:40:56;;;;;;;5.10;2.70;;;;;;;10.17;62.38;101149.98;1702088;83;21048;-57
2023/04/17 06:43:26;;;;;;;6.25;3.10;;;;;;;10.21;61.32;101151.38;1694757;84;21518;-56
2023/04/17 06:45:55;;;;;;;6.17;2.83;;;;;;;10.24;60.53;101152.39;1695872;84;21428;-57
2023/04/17 06:48:23;;;;;;;6.65;3.10;;;;;;;10.24;60.67;101154.27;1695379;84;21496;-59
2023/04/17 06:50:52;;;;;;;7.78;3.50;;;;;;;10.25;60.80;101155.98;1693219;84;21504;-57
2023/04/17 06:53:21;;;;;;;7.35;2.80;;;;;;;10.28;61.33;101159.22;1700409;84;21436;-56
2023/04/17 06:55:50;;;;;;;7.90;2.72;;;;;;;10.32;60.00;101155.09;1691851;84;21495;-58
2023/04/17 06:58:19;;;;;;;5.20;2.80;;;;;;;10.38;60.11;101153.53;1700250;84;21541;-55
2023/04/17 07:00:49;;;;;;;4.97;2.98;;;;;;;10.42;60.12;101159.02;1683567;85;21515;-56
2023/04/17 07:03:18;;;;;;;5.90;2.90;;;;;;;10.46;60.01;101162.59;1701474;84;21499;-56
2023/04/17 07:05:49;;;;;;;5.65;2.40;;;;;;;10.48;60.13;101166.02;1682893;85;21460;-56
2023/04/17 07:08:21;;;;;;;6.53;2.70;;;;;;;10.50;59.53;101167.72;1683235;85;21503;-58
2023/04/17 07:10:50;;;;;;;5.92;2.77;;;;;;;10.51;58.91;101159.84;1699305;84;21088;-57
2023/04/17 07:13:20;;;;;;;7.00;2.80;;;;;;;10.46;58.41;101159.86;1699073;84;21451;-56
2023/04/17 07:15:53;;;;;;;4.62;2.83;;;;;;;10.43;57.01;101161.58;1690845;85;21087;-56
2023/04/17 07:18:28;;;;;;;6.42;3.02;;;;;;;10.34;56.89;101165.36;1695999;84;21071;-57
2023/04/17 07:20:57;;;;;;;6.45;2.77;;;;;;;10.23;56.09;101161.64;1695360;84;21035;-57
2023/04/17 07:23:26;;;;;;;4.83;2.42;;;;;;;10.18;57.48;101165.39;1718433;82;21074;-56
2023/04/17 07:25:54;;;;;;;7.70;3.15;;;;;;;10.15;56.87;101161.12;1732010;82;21439;-55
2023/04/17 07:28:24;;;;;;;6.78;3.00;;;;;;;10.10;56.97;101169.01;1732004;83;21023;-56
2023/04/17 07:30:56;;;;;;;8.25;3.33;;;;;;;10.07;56.99;101166.63;1731926;82;21496;-56
2023/04/17 07:33:25;;;;;;;12.45;5.83;;;;;;;10.10;57.75;101168.16;1682389;83;20996;-57
2023/04/17 07:35:54;;;;;;;11.48;5.70;;;;;;;10.12;57.05;101171.57;1731891;83;21500;-56
2023/04/17 07:38:24;;;;;;;10.93;4.15;;;;;;;10.13;57.11;101170.02;1731739;82;21048;-57
2023/04/17 07:40:53;;;;;;;9.35;4.00;;;;;;;10.15;57.06;101172.07;1731755;83;21034;-57
2023/04/17 07:43:23;;;;;;;10.80;4.47;;;;;;;10.16;57.13;101177.03;1731659;82;21012;-58
2023/04/17 07:45:52;;;;;;;8.70;3.95;;;;;;;10.18;57.20;101170.87;1731889;82;21063;-57
2023/04/17 07:48:21;;;;;;;8.15;4.08;;;;;;;10.19;56.92;101179.42;1731435;82;21076;-57
2023/04/17 07:50:50;;;;;;;10.08;4.80;;;;;;;10.18;56.89;101170.35;1731475;82;21447;-56
2023/04/17 07:53:20;;;;;;;6.75;4.22;;;;;;;10.18;56.26;101166.24;1731635;83;21035;-57
2023/04/17 07:55:49;;;;;;;8.45;4.15;;;;;;;10.21;56.42;101169.69;1731554;83;21091;-57
2023/04/17 07:58:18;;;;;;;8.15;4.40;;;;;;;10.23;56.57;101171.22;1731589;82;21027;-57
2023/04/17 08:00:49;;;;;;;9.30;4.05;;;;;;;10.28;56.58;101170.17;1731733;82;21424;-56
2023/04/17 08:03:20;;;;;;;8.55;3.72;;;;;;;10.36;56.87;101174.77;1731465;83;21545;-56
2023/04/17 08:05:54;;;;;;;8.85;4.50;;;;;;;10.39;55.28;101168.94;1731786;83;21047;-57
2023/04/17 08:08:22;;;;;;;8.63;4.55;;;;;;;10.39;54.91;101169.79;1731552;82;21436;-58
2023/04/17 08:10:51;;;;;;;7.62;4.03;;;;;;;10.38;54.47;101160.38;1731700;82;21505;-57
2023/04/17 08:13:21;;;;;;;6.33;3.50;;;;;;;10.38;55.35;101165.34;1727012;82;21028;-58
2023/04/17 08:15:51;;;;;;;8.90;3.22;;;;;;;10.43;55.03;101153.37;1731538;82;21016;-58
2023/04/17 08:18:20;;;;;;;17.67;4.35;;;;;;;10.44;54.86;101152.84;1731887;83;21043;-56
2023/04/17 08:20:49;;;;;;;6.50;2.98;;;;;;;10.47;54.98;101157.97;1728916;82;21055;-57
2023/04/17 08:23:17;;;;;;;7.25;3.40;;;;;;;10.51;55.09;101158.47;1711393;82;21075;-58
2023/04/17 08:25:46;;;;;;;5.78;3.60;;;;;;;10.57;54.97;101146.27;1657323;85;21087;-57
2023/04/17 08:28:14;;;;;;;5.90;2.85;;;;;;;10.70;55.80;101147.05;1670013;85;21032;-59
2023/04/17 08:30:43;;;;;;;5.45;2.75;;;;;;;10.85;55.56;101143.88;1646092;87;21541;-61
2023/04/17 08:33:12;;;;;;;4.80;2.30;;;;;;;10.97;52.73;101144.31;1709699;84;21091;-56
2023/04/17 08:35:41;;;;;;;5.75;3.20;;;;;;;10.97;52.34;101141.05;1709567;84;20996;-58
2023/04/17 08:38:12;;;;;;;6.12;3.10;;;;;;;10.99;52.64;101143.61;1716829;83;21055;-57
2023/04/17 08:40:41;;;;;;;6.80;2.85;;;;;;;11.07;52.77;101138.09;1724804;83;21447;-56
2023/04/17 08:43:20;;;;;;;7.17;3.10;;;;;;;11.17;53.54;101146.08;1724733;83;21483;-58
2023/04/17 08:45:52;;;;;;;7.60;3.20;;;;;;;11.30;53.31;101151.80;1723953;83;21066;-58
2023/04/17 08:48:22;;;;;;;6.25;3.60;;;;;;;11.53;53.30;101134.78;1702345;83;21456;-58
2023/04/17 08:50:52;;;;;;;11.55;3.22;;;;;;;11.79;52.33;101131.67;1702101;84;21036;-58
2023/04/17 08:53:21;;;;;;;7.70;3.40;;;;;;;12.07;52.39;101137.36;1701900;84;21020;-58
2023/04/17 08:55:51;;;;;;;6.75;3.27;;;;;;;12.51;52.04;101135.13;1698035;84;21024;-58
2023/04/17 08:58:24;;;;;;;7.00;3.12;;;;;;;12.82;51.41;101130.21;1696672;84;21044;-57
2023/04/17 09:00:51;;;;;;;11.25;3.20;;;;;;;13.09;48.52;101133.27;1696734;84;21420;-59
2023/04/17 09:03:20;;;;;;;3.90;2.37;;;;;;;13.14;48.92;101134.39;1704013;84;21131;-57
2023/04/17 09:05:50;;;;;;;6.35;2.60;;;;;;;13.13;48.36;101126.33;1704003;83;21071;-57
2023/04/17 09:08:24;;;;;;;4.47;2.50;;;;;;;13.15;47.45;101139.36;1683962;84;21036;-59
2023/04/17 09:10:53;;;;;;;4.37;2.40;;;;;;;13.08;44.55;101120.56;1703975;83;21503;-56
2023/04/17 09:13:24;;;;;;;3.92;2.47;;;;;;;12.90;45.34;101140.23;1704024;84;21466;-58
2023/04/17 09:16:09;;;;;;;5.00;2.45;;;;;;;12.78;45.07;101137.67;1704148;84;21027;-58
2023/04/17 09:18:39;;;;;;;3.87;2.10;;;;;;;12.68;45.55;101134.70;1704025;84;21523;-59
2023/04/17 09:21:07;;;;;;;7.08;2.42;;;;;;;12.63;46.00;101133.58;1701280;84;21115;-58
2023/04/17 09:23:51;;;;;;;5.15;2.42;;;;;;;12.59;46.64;101137.77;1698437;83;21084;-57
2023/04/17 09:26:22;;;;;;;4.95;2.10;;;;;;;12.56;46.66;101139.53;1716438;83;21451;-58
2023/04/17 09:29:09;;;;;;;3.87;1.98;;;;;;;12.43;46.11;101130.59;1708137;83;21071;-60
2023/04/17 09:31:41;;;;;;;5.45;2.22;;;;;;;12.29;46.75;101129.53;1686948;85;21072;-57
2023/04/17 09:34:11;;;;;;;5.47;2.42;;;;;;;12.17;47.65;101129.69;1686789;85;21071;-58
2023/04/17 09:36:42;;;;;;;3.65;2.30;;;;;;;12.10;47.82;101131.49;1687073;85;21517;-58
2023/04/17 09:39:23;;;;;;;7.20;2.47;;;;;;;12.03;48.35;101140.16;1686985;85;21035;-56
2023/04/17 09:42:02;;;;;;;7.45;2.90;;;;;;;11.93;48.33;101135.47;1686989;85;21546;-58
2023/04/17 09:44:35;;;;;;;6.00;2.95;;;;;;;11.85;49.37;101133.66;1687066;85;21308;-57
2023/04/17 09:47:03;;;;;;;4.33;2.40;;;;;;;11.84;49.98;101129.73;1686976;84;21486;-57
2023/04/17 09:49:38;;;;;;;5.10;2.60;;;;;;;11.83;50.13;101132.15;1663907;85;21501;-57
2023/04/17 09:52:07;;;;;;;6.35;2.62;;;;;;;11.79;50.61;101134.42;1687131;85;21067;-58
2023/04/17 09:54:38;;;;;;;5.92;2.70;;;;;;;11.75;50.69;101130.31;1687033;85;21467;-59
2023/04/17 09:57:08;;;;;;;5.28;2.40;;;;;;;11.69;51.24;101131.03;1686852;85;21107;-57
2023/04/17 09:59:40;;;;;;;7.60;2.92;;;;;;;11.65;51.17;101129.69;1686699;85;21035;-58
2023/04/17 10:02:10;;;;;;;6.83;2.33;;;;;;;11.58;51.99;101121.87;1686959;84;21068;-58
2023/04/17 10:04:42;;;;;;;5.80;2.52;;;;;;;11.53;52.41;101121.58;1686971;85;21485;-60
2023/04/17 10:07:12;;;;;;;8.38;3.10;;;;;;;11.52;52.62;101123.99;1687282;85;21048;-58
2023/04/17 10:09:42;;;;;;;6.47;2.58;;;;;;;11.51;52.71;101127.26;1686620;85;21011;-58
2023/04/17 10:12:16;;;;;;;5.75;2.70;;;;;;;11.52;52.37;101127.59;1687112;85;21075;-58
2023/04/17 10:14:47;;;;;;;5.20;2.90;;;;;;;11.50;52.08;101131.56;1686639;84;21451;-59
2023/04/17 10:17:30;;;;;;;6.53;2.52;;;;;;;11.42;52.05;101126.48;1686796;84;21008;-58
2023/04/17 10:20:27;;;;;;;7.00;3.00;;;;;;;11.38;52.24;101125.14;1686900;85;21059;-58
2023/04/17 10:22:56;;;;;;;6.87;3.08;;;;;;;11.38;52.35;101116.06;1686808;85;21517;-59
2023/04/17 10:25:30;;;;;;;8.50;3.35;;;;;;;11.34;52.27;101122.44;1688082;83;21486;-62
2023/04/17 10:27:59;;;;;;;6.65;3.10;;;;;;;11.32;52.09;101125.03;1715917;83;21042;-58
2023/04/17 10:30:52;;;;;;;7.75;2.95;;;;;;;11.32;52.58;101119.55;1750147;82;21069;-59
2023/04/17 10:33:23;;;;;;;6.72;2.65;;;;;;;11.33;52.95;101115.25;1751833;82;21026;-58
2023/04/17 10:35:52;;;;;;;8.53;3.50;;;;;;;11.41;53.57;101114.31;1752267;82;21434;-59
2023/04/17 10:38:33;;;;;;;10.08;4.03;;;;;;;11.49;53.69;101112.02;1752096;81;21030;-57
2023/04/17 10:41:03;;;;;;;7.05;3.70;;;;;;;11.56;52.94;101112.45;1752441;82;21061;-57
2023/04/17 10:43:34;;;;;;;8.83;4.05;;;;;;;11.61;52.53;101120.98;1753722;82;21006;-57
2023/04/17 10:46:05;;;;;;;4.40;2.65;;;;;;;11.66;52.76;101124.53;1754501;82;21026;-56
2023/04/17 10:48:40;;;;;;;4.20;2.05;;;;;;;11.68;52.33;101109.59;1732444;82;21026;-57
2023/04/17 10:51:26;;;;;;;5.08;2.37;;;;;;;11.72;52.94;101115.06;1752098;82;21014;-59
2023/04/17 10:53:59;;;;;;;4.95;2.05;;;;;;;11.78;52.51;101111.27;1752107;82;20990;-58
2023/04/17 10:56:48;;;;;;;4.35;1.77;;;;;;;11.83;52.25;101111.55;1751681;82;21049;-57
2023/04/17 10:59:21;;;;;;;7.85;2.10;;;;;;;11.86;52.00;101112.03;1752213;82;21014;-57
2023/04/17 11:01:56;;;;;;;6.95;2.47;;;;;;;11.90;52.12;101101.52;1752150;82;21429;-57
2023/04/17 11:04:30;;;;;;;5.67;2.77;;;;;;;11.95;52.28;101104.55;1752151;82;21426;-58
2023/04/17 11:06:59;;;;;;;9.28;4.62;;;;;;;12.00;52.22;101102.94;1751956;82;20987;-59
2023/04/17 11:09:29;;;;;;;6.37;3.02;;;;;;;12.06;51.83;101101.33;1752057;82;21016;-59
2023/04/17 11:12:00;;;;;;;5.40;2.30;;;;;;;12.15;52.27;101097.95;1752074;82;21445;-58
2023/04/17 11:14:30;;;;;;;7.75;2.80;;;;;;;12.21;52.16;101094.44;1752172;82;21406;-59
2023/04/17 11:17:00;;;;;;;6.60;2.33;;;;;;;12.29;52.01;101091.06;1751821;82;21025;-58
2023/04/17 11:19:29;;;;;;;7.75;2.70;;;;;;;12.37;51.40;101083.27;1730973;82;21465;-59
2023/04/17 11:22:00;;;;;;;7.25;2.58;;;;;;;12.45;51.68;101083.67;1731216;82;21014;-58
2023/04/17 11:24:31;;;;;;;6.67;2.58;;;;;;;12.52;53.00;101073.61;1746695;81;21039;-56
2023/04/17 11:27:02;;;;;;;4.33;2.52;;;;;;;12.60;53.33;101069.36;1729716;81;21004;-57
2023/04/17 11:29:31;;;;;;;3.98;2.22;;;;;;;12.67;52.80;101067.53;1712378;83;21044;-59
2023/04/17 11:32:00;;;;;;;3.42;2.10;;;;;;;12.70;51.33;101057.00;1703926;84;21505;-58
2023/04/17 11:34:30;;;;;;;4.37;1.90;;;;;;;12.73;51.22;101064.53;1713792;84;21652;-57
2023/04/17 11:36:59;;;;;;;5.90;1.85;;;;;;;12.76;50.13;101056.73;1713594;84;21427;-57
2023/04/17 11:39:33;;;;;;;3.45;1.65;;;;;;;12.82;50.68;101049.60;1713768;84;21490;-58